Tulsa, OK (74106)

3:47 AM CST on February 23, 2017 (GMT -0600)
United Neighborhood of Springdale | | Change Station
Active Advisory: Fire Weather Warning

Elev 761 ft 36.17 °N, 95.96 °W | Updated 10 seconds ago

Mostly Cloudy
Mostly Cloudy
63.3 °F
Feels Like 63.3 °F
N
0.6
Wind Variable Wind from SW
Gusts 1.2 mph

Today
High -- | Low -- °F
--% Chance of Precip.
Yesterday
High -- | Low -- °F
Precip. -- in
Pressure 29.59 in
Visibility 10.0 miles
Clouds Scattered Clouds 25000 ft
Dew Point 48 °F
Humidity 56%
Rainfall 0.00 in
Snow Depth Not available.
7:01 AM 6:13 PM
Waning Crescent, 11% visible
METAR KTUL 230853Z COR 13005KT 10SM SCT250 13/09 A2961 RMK AO2 SLP020 T01330089 58012
Pressure 29.59 in
Visibility 10.0 miles
Clouds Scattered Clouds 25000 ft
Dew Point 48 °F
Humidity 56%
Rainfall 0.00 in
Snow Depth Not available.
7:01 AM 6:13 PM
Waning Crescent, 11% visible
METAR KTUL 230853Z COR 13005KT 10SM SCT250 13/09 A2961 RMK AO2 SLP020 T01330089 58012

Get Your Daily Forecast Email!

Thanks for signing up!

Be on the lookout for a verification email in your inbox.

You'll start receiving the daily forecast at 8 AM.

×

10-Day Weather Forecast

Almanac

Astronomy

Feb. 23, 2017 Rise Set
Actual Time
Civil Twilight
Nautical Twilight
Astronomical Twilight
Moon
Length of Visible Light
Length of Day
Tomorrow will be .
, % of the Moon is Illuminated

Today's Extremes

State Highs State Lows

Community

WunderPhotos

Upload Photos

1,962,540 photos uploaded!

WunderBlog® & News

Nearby

Air Quality

  Air Quality AQ Index Pollutant
Not available.

Snow Depth

Station Depth Elevation

Earthquake Activity

City Distance Mag. Time & Date
Minimum magnitude displayed is 2.5.

Coastal Water Temperatures

Place Temperature

Stations

Nearby Weather Stations

Station Location Temp. Windchill Dew Point Humidity Wind Precip. Elev Updated Type
                   

Watches & Warnings

Fire Weather Warning
Issued: 3:12 AM CST Feb. 23, 2017 – National Weather Service

... Red flag warning in effect from 11 am this morning to 7 PM CST
this evening for very dry and windy conditions...

The National Weather Service in Tulsa has issued a red flag
warning, which is in effect from 11 am this morning to 7 PM CST
this evening. The Fire Weather Watch is no longer in effect.

* Affected area... in Oklahoma, Osage, Washington, Pawnee, Tulsa,
creek, Okfuskee, and Okmulgee counties.

* Wind... south winds 15 to 25 miles an hour with gusts to 35
miles an hour.

* Humidity... around 25 percent.

* Temperature... highs in the mid 80s.

* Impacts... any fires that develop will likely spread rapidly.
Outdoor burning is not recommended.

Precautionary/preparedness actions...

A red flag warning means that a dangerous combination of weather
conditions and dry vegetation is expected within 24 hours,
favoring rapid growth and spread of any wildfires. The primary
weather factors include stronger winds, lower humidities, and
warmer temperatures.